Terminal Aerodrome Forecast
Issued by NWS

Home | Current Version | Previous Version | Text Only | Print | Product List | Glossary On
Versions: 1 2 3 4 5 6 7 8 9 10 11 12 13 14 15 16 17 18 19 20 21 22 23 24 25 26
000
FTUS43 KAPX 301207 AAA
TAFMBL
TAF AMD
KMBL 301207Z 3012/3112 00000KT 3SM BR OVC002
      TEMPO 3012/3013 1/4SM FG OVC001
     FM301400 VRB03KT P6SM BKN015
     FM301800 28008KT P6SM SCT035
     FM310100 00000KT P6SM SKC
      TEMPO 3108/3112 3SM BR
      AMD LTD TO CLD VIS AND WIND=

USA.gov is the U.S. government's official web portal to all federal, state and local government web resources and services.